createdAt,value
2018-09-11T00:01:51.660Z,49.75
2018-09-11T00:04:20.870Z,50.18
2018-09-11T00:06:50.010Z,50.02
2018-09-11T00:09:19.250Z,50.89
2018-09-11T00:11:48.332Z,50.85
2018-09-11T00:14:17.511Z,50.38
2018-09-11T00:16:46.697Z,50.23
2018-09-11T00:19:15.949Z,50.63
2018-09-11T00:21:45.152Z,50.77
2018-09-11T00:24:14.325Z,51.25
2018-09-11T00:26:43.470Z,51.37
2018-09-11T00:29:12.631Z,51.55
2018-09-11T00:31:41.845Z,51.67
2018-09-11T00:34:11.203Z,52.08
2018-09-11T00:36:40.396Z,51.46
2018-09-11T00:39:09.958Z,51.50
2018-09-11T00:41:39.069Z,51.14
2018-09-11T00:44:08.283Z,50.94
2018-09-11T00:46:37.432Z,50.74
2018-09-11T00:49:06.637Z,50.70
2018-09-11T00:51:35.857Z,50.71
2018-09-11T00:54:05.027Z,50.74
2018-09-11T00:56:34.528Z,50.45
2018-09-11T00:59:03.750Z,50.76
2018-09-11T01:01:32.892Z,50.55
2018-09-11T01:04:02.058Z,51.01
2018-09-11T01:06:31.191Z,50.79
2018-09-11T01:09:00.334Z,50.77
2018-09-11T01:11:29.527Z,51.00
2018-09-11T01:13:58.685Z,50.88
2018-09-11T01:16:27.879Z,50.80
2018-09-11T01:18:57.008Z,50.62
2018-09-11T01:21:26.199Z,50.59
2018-09-11T01:23:55.438Z,50.63
2018-09-11T01:26:24.556Z,50.62
2018-09-11T01:28:53.698Z,51.15
2018-09-11T01:31:22.854Z,51.01
2018-09-11T01:33:51.964Z,50.74
2018-09-11T01:36:21.206Z,50.53
2018-09-11T01:38:50.341Z,50.43
2018-09-11T01:41:19.481Z,50.65
2018-09-11T01:43:48.637Z,50.72
2018-09-11T01:46:17.807Z,50.65
2018-09-11T01:48:47.015Z,51.09
2018-09-11T01:51:16.175Z,51.35
2018-09-11T01:53:45.367Z,51.62
2018-09-11T01:56:14.468Z,51.63
2018-09-11T01:58:43.639Z,51.51
2018-09-11T02:01:12.833Z,51.90
2018-09-11T02:03:42.086Z,51.63
2018-09-11T02:06:11.213Z,51.69
2018-09-11T02:08:40.459Z,51.55
2018-09-11T02:11:09.616Z,51.73
2018-09-11T02:13:38.779Z,51.95
2018-09-11T02:16:07.926Z,51.75
2018-09-11T02:18:37.091Z,51.56
2018-09-11T02:21:06.312Z,51.41
2018-09-11T02:23:35.507Z,51.70
2018-09-11T02:26:04.654Z,51.51
2018-09-11T02:28:33.854Z,51.63
2018-09-11T02:31:03.044Z,51.87
2018-09-11T02:33:32.225Z,51.61
2018-09-11T02:36:01.450Z,51.71
2018-09-11T02:38:30.650Z,51.81
2018-09-11T02:40:59.833Z,51.80
2018-09-11T02:43:29.001Z,52.02
2018-09-11T02:45:58.178Z,51.89
2018-09-11T02:48:27.337Z,51.74
2018-09-11T02:50:56.450Z,51.75
2018-09-11T02:53:25.572Z,51.40
2018-09-11T02:55:54.755Z,51.53
2018-09-11T02:58:23.865Z,51.82
2018-09-11T03:00:53.100Z,51.69
2018-09-11T03:03:22.252Z,51.78
2018-09-11T03:05:51.714Z,51.71
2018-09-11T03:08:20.895Z,51.60
2018-09-11T03:10:50.066Z,51.86
2018-09-11T03:13:19.216Z,51.89
2018-09-11T03:15:48.386Z,51.98
2018-09-11T03:18:17.508Z,52.41
2018-09-11T03:20:51.572Z,52.61
2018-09-11T03:23:20.945Z,52.71
2018-09-11T03:25:50.126Z,52.82
2018-09-11T03:28:19.347Z,52.90
2018-09-11T03:30:48.540Z,53.05
2018-09-11T03:33:17.687Z,53.16
2018-09-11T03:35:46.844Z,52.79
2018-09-11T03:38:16.230Z,52.79
2018-09-11T03:40:45.423Z,52.69
2018-09-11T03:43:15.058Z,52.81
2018-09-11T03:45:48.683Z,53.05
2018-09-11T03:48:21.367Z,52.83
2018-09-11T03:50:51.478Z,53.12
2018-09-11T03:53:20.689Z,52.88
2018-09-11T03:55:49.814Z,52.73
2018-09-11T03:58:19.262Z,52.79
2018-09-11T04:00:48.405Z,52.98
2018-09-11T04:03:17.509Z,53.11
2018-09-11T04:05:46.698Z,53.21
2018-09-11T04:08:15.891Z,52.69
2018-09-11T04:10:45.075Z,52.80
2018-09-11T04:13:14.226Z,52.51
2018-09-11T04:15:43.362Z,52.87
2018-09-11T04:18:12.654Z,52.80
2018-09-11T04:20:41.825Z,53.06
2018-09-11T04:23:11.236Z,52.98
2018-09-11T04:25:40.485Z,53.14
2018-09-11T04:28:09.524Z,52.69
2018-09-11T04:30:38.711Z,52.87
2018-09-11T04:33:07.844Z,53.05
2018-09-11T04:35:36.932Z,52.91
2018-09-11T04:38:06.757Z,53.30
2018-09-11T04:40:35.841Z,53.18
2018-09-11T04:43:05.032Z,53.00
2018-09-11T04:45:34.157Z,53.27
2018-09-11T04:48:03.345Z,53.50
2018-09-11T04:50:32.575Z,53.22
2018-09-11T04:53:01.770Z,53.46
2018-09-11T04:55:30.895Z,53.19
2018-09-11T04:58:00.063Z,53.07
2018-09-11T05:00:29.245Z,52.90
2018-09-11T05:02:58.435Z,53.18
2018-09-11T05:05:27.638Z,52.86
2018-09-11T05:07:56.812Z,52.66
2018-09-11T05:10:26.044Z,52.36
2018-09-11T05:12:55.214Z,52.53
2018-09-11T05:15:24.336Z,52.64
2018-09-11T05:17:53.559Z,52.52
2018-09-11T05:20:22.691Z,52.61
2018-09-11T05:22:51.831Z,52.67
2018-09-11T05:25:21.015Z,52.57
2018-09-11T05:27:50.123Z,52.58
2018-09-11T05:30:19.278Z,52.36
2018-09-11T05:32:48.452Z,52.70
2018-09-11T05:35:17.609Z,52.54
2018-09-11T05:37:46.730Z,52.27
2018-09-11T05:40:15.846Z,52.32
2018-09-11T05:42:44.998Z,51.97
2018-09-11T05:45:14.155Z,51.03
2018-09-11T05:47:43.349Z,50.89
2018-09-11T05:50:12.501Z,50.60
2018-09-11T05:52:41.667Z,50.01
2018-09-11T05:55:10.870Z,49.90
2018-09-11T05:57:40.057Z,49.34
2018-09-11T06:00:09.208Z,49.21
2018-09-11T06:02:38.369Z,49.30
2018-09-11T06:05:07.498Z,49.19
2018-09-11T06:07:36.713Z,49.11
2018-09-11T06:10:05.893Z,49.07
2018-09-11T06:12:35.040Z,49.13
2018-09-11T06:15:04.206Z,49.09
2018-09-11T06:17:33.327Z,48.60
2018-09-11T06:20:02.464Z,48.27
2018-09-11T06:22:31.647Z,48.33
2018-09-11T06:25:00.874Z,48.06
2018-09-11T06:27:30.009Z,47.83
2018-09-11T06:29:59.163Z,47.25
2018-09-11T06:32:28.350Z,47.16
2018-09-11T06:34:57.481Z,46.56
2018-09-11T06:37:26.680Z,46.25
2018-09-11T06:39:55.834Z,45.99
2018-09-11T06:42:25.044Z,45.00
2018-09-11T06:44:54.158Z,45.42
2018-09-11T06:47:23.290Z,45.61
2018-09-11T06:49:52.452Z,46.23
2018-09-11T06:52:21.567Z,46.26
2018-09-11T06:54:50.797Z,46.05
2018-09-11T06:57:19.842Z,45.38
2018-09-11T06:59:48.967Z,45.57
2018-09-11T07:02:18.119Z,45.60
2018-09-11T07:04:47.285Z,45.95
2018-09-11T07:07:16.397Z,45.16
2018-09-11T07:09:45.587Z,45.07
2018-09-11T07:12:14.695Z,44.99
2018-09-11T07:14:43.864Z,44.53
2018-09-11T07:17:13.095Z,45.09
2018-09-11T07:19:42.255Z,44.90
2018-09-11T07:22:11.377Z,45.03
2018-09-11T07:24:40.551Z,44.76
2018-09-11T07:27:09.734Z,44.58
2018-09-11T07:29:38.855Z,44.36
2018-09-11T07:32:07.972Z,44.08
2018-09-11T07:34:37.103Z,44.02
2018-09-11T07:37:07.038Z,44.07
2018-09-11T07:39:36.188Z,44.25
2018-09-11T07:42:05.321Z,44.07
2018-09-11T07:44:34.476Z,43.14
2018-09-11T07:47:03.599Z,43.63
2018-09-11T07:49:32.708Z,43.40
2018-09-11T07:52:01.872Z,43.09
2018-09-11T07:54:31.037Z,42.53
2018-09-11T07:57:00.194Z,42.46
2018-09-11T07:59:29.315Z,41.84
2018-09-11T08:01:58.444Z,42.25
2018-09-11T08:04:27.592Z,41.93
2018-09-11T08:06:56.713Z,41.68
2018-09-11T08:09:25.918Z,41.20
2018-09-11T08:11:55.037Z,41.32
2018-09-11T08:14:24.118Z,40.65
2018-09-11T08:16:53.182Z,41.16
2018-09-11T08:19:22.318Z,40.91
2018-09-11T08:21:51.481Z,40.29
2018-09-11T08:24:20.687Z,40.49
2018-09-11T08:26:49.814Z,40.41
2018-09-11T08:29:18.974Z,39.70
2018-09-11T08:31:48.121Z,39.69
2018-09-11T08:34:17.254Z,40.07
2018-09-11T08:36:46.395Z,39.71
2018-09-11T08:39:15.612Z,39.51
2018-09-11T08:41:44.758Z,39.43
2018-09-11T08:44:13.948Z,39.47
2018-09-11T08:46:43.173Z,39.47
2018-09-11T08:49:12.231Z,39.33
2018-09-11T08:51:41.410Z,38.77
2018-09-11T08:54:10.515Z,38.31
2018-09-11T08:56:39.664Z,38.58
2018-09-11T08:59:08.834Z,38.34
2018-09-11T09:01:38.051Z,38.37
2018-09-11T09:04:07.226Z,38.86
2018-09-11T09:06:36.351Z,37.62
2018-09-11T09:09:09.085Z,37.79
2018-09-11T09:11:38.517Z,36.55
2018-09-11T09:14:07.765Z,36.66
2018-09-11T09:16:36.937Z,36.63
2018-09-11T09:19:06.101Z,35.96
2018-09-11T09:21:35.328Z,31.65
2018-09-11T09:24:04.450Z,28.83
2018-09-11T09:26:33.611Z,25.69
2018-09-11T09:29:02.764Z,24.79
2018-09-11T09:31:31.841Z,24.75
2018-09-11T09:34:01.009Z,24.29
2018-09-11T09:36:30.208Z,26.54
2018-09-11T09:38:59.339Z,26.88
2018-09-11T09:41:28.511Z,26.04
2018-09-11T09:43:57.669Z,25.63
2018-09-11T09:46:26.812Z,25.42
2018-09-11T09:48:55.986Z,26.76
2018-09-11T09:51:25.140Z,26.61
2018-09-11T09:53:54.389Z,26.53
2018-09-11T09:56:23.547Z,25.62
2018-09-11T09:58:52.761Z,25.91
2018-09-11T10:01:27.161Z,25.47
2018-09-11T10:03:56.328Z,25.01
2018-09-11T10:06:25.470Z,25.69
2018-09-11T10:08:54.546Z,26.06
2018-09-11T10:11:23.669Z,26.40
2018-09-11T10:13:52.789Z,27.30
2018-09-11T10:16:22.038Z,27.82
2018-09-11T10:18:51.150Z,28.49
2018-09-11T10:21:20.336Z,29.48
2018-09-11T10:23:49.513Z,28.42
2018-09-11T10:26:18.653Z,28.14
2018-09-11T10:28:47.794Z,28.42
2018-09-11T10:31:16.929Z,28.28
2018-09-11T10:33:46.218Z,28.13
2018-09-11T10:36:15.316Z,28.20
2018-09-11T10:38:44.431Z,28.10
2018-09-11T10:41:13.584Z,27.65
2018-09-11T10:43:42.717Z,28.44
2018-09-11T10:46:11.816Z,28.47
2018-09-11T10:48:41.022Z,28.31
2018-09-11T10:51:10.078Z,28.60
2018-09-11T10:53:39.243Z,28.47
2018-09-11T10:56:08.436Z,29.14
2018-09-11T10:58:37.550Z,28.63
2018-09-11T11:01:06.943Z,30.03
2018-09-11T11:03:36.135Z,29.46
2018-09-11T11:06:05.324Z,30.08
2018-09-11T11:08:34.473Z,30.09
2018-09-11T11:11:03.600Z,29.39
2018-09-11T11:13:32.733Z,30.06
2018-09-11T11:16:01.856Z,30.50
2018-09-11T11:18:30.976Z,29.95
2018-09-11T11:21:00.149Z,30.87
2018-09-11T11:23:29.262Z,30.86
2018-09-11T11:25:58.756Z,30.93
2018-09-11T11:28:27.952Z,31.05
2018-09-11T11:30:57.098Z,29.79
2018-09-11T11:33:26.217Z,30.23
2018-09-11T11:35:55.374Z,29.34
2018-09-11T11:38:24.572Z,28.45
2018-09-11T11:40:53.725Z,27.87
2018-09-11T11:43:22.878Z,28.00
2018-09-11T11:45:52.797Z,28.09
2018-09-11T11:48:22.096Z,28.18
2018-09-11T11:50:51.059Z,28.41
2018-09-11T11:53:20.218Z,28.25
2018-09-11T11:55:49.371Z,28.17
2018-09-11T11:58:18.577Z,27.20
2018-09-11T12:00:47.799Z,26.95
2018-09-11T12:03:17.021Z,27.23
2018-09-11T12:05:46.157Z,26.90
2018-09-11T12:08:15.308Z,27.46
2018-09-11T12:10:44.477Z,26.66
2018-09-11T12:13:13.673Z,26.64
2018-09-11T12:15:42.790Z,26.22
2018-09-11T12:18:11.956Z,27.33
2018-09-11T12:20:41.119Z,26.31
2018-09-11T12:23:10.268Z,26.32
2018-09-11T12:25:39.485Z,26.46
2018-09-11T12:28:08.559Z,26.38
2018-09-11T12:30:37.837Z,26.83
2018-09-11T12:33:07.234Z,27.00
2018-09-11T12:35:36.804Z,26.83
2018-09-11T12:38:05.953Z,26.08
2018-09-11T12:40:35.118Z,26.77
2018-09-11T12:43:04.317Z,25.73
2018-09-11T12:45:33.450Z,26.06
2018-09-11T12:48:02.938Z,26.04
2018-09-11T12:50:31.772Z,25.18
2018-09-11T12:53:00.918Z,25.38
2018-09-11T12:55:30.107Z,25.29
2018-09-11T12:57:59.266Z,25.47
2018-09-11T13:00:28.380Z,25.33
2018-09-11T13:02:57.528Z,26.26
2018-09-11T13:05:26.748Z,25.63
2018-09-11T13:07:55.876Z,25.43
2018-09-11T13:10:25.017Z,25.82
2018-09-11T13:12:54.295Z,25.38
2018-09-11T13:15:26.403Z,25.49
2018-09-11T13:17:55.788Z,24.88
2018-09-11T13:20:24.859Z,25.47
2018-09-11T13:22:54.054Z,25.32
2018-09-11T13:25:23.267Z,25.07
2018-09-11T13:27:52.361Z,24.49
2018-09-11T13:30:21.521Z,25.33
2018-09-11T13:32:50.659Z,25.08
2018-09-11T13:35:19.770Z,25.20
2018-09-11T13:37:48.936Z,25.10
2018-09-11T13:40:18.097Z,24.25
2018-09-11T13:42:47.316Z,24.04
2018-09-11T13:45:16.493Z,24.52
2018-09-11T13:47:45.713Z,24.61
2018-09-11T13:50:14.826Z,24.63
2018-09-11T13:52:43.996Z,24.71
2018-09-11T13:55:13.182Z,25.75
2018-09-11T13:57:42.393Z,26.20
2018-09-11T14:00:11.614Z,26.94
2018-09-11T14:02:41.020Z,27.21
2018-09-11T14:05:10.134Z,27.15
2018-09-11T14:07:39.336Z,26.50
2018-09-11T14:10:08.493Z,26.78
2018-09-11T14:12:37.721Z,27.34
2018-09-11T14:15:07.458Z,27.98
2018-09-11T14:17:36.596Z,28.11
2018-09-11T14:20:06.632Z,27.46
2018-09-11T14:22:35.844Z,27.46
2018-09-11T14:25:05.045Z,27.94
2018-09-11T14:27:34.211Z,28.69
2018-09-11T14:30:03.349Z,28.37
2018-09-11T14:32:32.506Z,28.17
2018-09-11T14:35:01.746Z,27.92
2018-09-11T14:37:30.864Z,27.70
2018-09-11T14:40:00.013Z,27.88
2018-09-11T14:42:29.143Z,28.18
2018-09-11T14:44:58.235Z,27.98
2018-09-11T14:47:31.548Z,28.49
2018-09-11T14:50:00.727Z,28.21
2018-09-11T14:52:29.896Z,28.20
2018-09-11T14:54:59.021Z,28.15
2018-09-11T14:57:28.211Z,28.60
2018-09-11T14:59:57.458Z,28.40
2018-09-11T15:02:26.566Z,28.65
2018-09-11T15:04:56.237Z,28.97
2018-09-11T15:07:25.688Z,28.57
2018-09-11T15:09:54.979Z,29.16
2018-09-11T15:12:24.155Z,29.38
2018-09-11T15:14:53.389Z,29.66
2018-09-11T15:17:22.496Z,29.27
2018-09-11T15:19:51.704Z,30.02
2018-09-11T15:22:21.081Z,29.33
2018-09-11T15:24:50.159Z,29.75
2018-09-11T15:27:19.330Z,29.89
2018-09-11T15:29:48.505Z,29.55
2018-09-11T15:32:17.708Z,29.97
2018-09-11T15:34:46.875Z,29.77
2018-09-11T15:37:16.059Z,29.56
2018-09-11T15:39:45.216Z,30.50
2018-09-11T15:42:14.385Z,30.12
2018-09-11T15:44:43.569Z,31.15
2018-09-11T15:47:12.794Z,30.74
2018-09-11T15:49:41.929Z,31.35
2018-09-11T15:52:11.090Z,31.71
2018-09-11T15:54:40.290Z,31.71
2018-09-11T15:57:09.453Z,31.97
2018-09-11T15:59:38.615Z,31.64
2018-09-11T16:02:07.836Z,31.88
2018-09-11T16:04:36.976Z,32.00
2018-09-11T16:07:06.185Z,31.90
2018-09-11T16:09:35.417Z,32.21
2018-09-11T16:12:04.572Z,32.32
2018-09-11T16:14:33.953Z,32.54
2018-09-11T16:17:03.097Z,32.49
2018-09-11T16:19:32.227Z,32.50
2018-09-11T16:22:01.381Z,32.80
2018-09-11T16:24:30.611Z,32.99
2018-09-11T16:26:59.826Z,32.54
2018-09-11T16:29:28.965Z,32.71
2018-09-11T16:31:58.186Z,32.74
2018-09-11T16:34:27.400Z,32.66
2018-09-11T16:36:56.586Z,33.13
2018-09-11T16:39:25.789Z,32.94
2018-09-11T16:41:55.017Z,32.85
2018-09-11T16:44:24.174Z,32.85
2018-09-11T16:46:53.355Z,33.33
2018-09-11T16:49:22.546Z,32.97
2018-09-11T16:51:51.926Z,33.29
2018-09-11T16:54:21.095Z,33.33
2018-09-11T16:56:50.276Z,33.97
2018-09-11T16:59:19.406Z,34.02
2018-09-11T17:01:48.554Z,34.02
2018-09-11T17:04:17.690Z,33.90
2018-09-11T17:06:46.880Z,34.22
2018-09-11T17:09:16.028Z,34.18
2018-09-11T17:11:45.156Z,34.51
2018-09-11T17:14:14.262Z,34.84
2018-09-11T17:16:43.439Z,35.15
2018-09-11T17:19:12.554Z,35.06
2018-09-11T17:21:41.696Z,35.27
2018-09-11T17:24:10.813Z,35.76
2018-09-11T17:26:40.004Z,36.13
2018-09-11T17:29:09.142Z,35.91
2018-09-11T17:31:38.239Z,36.40
2018-09-11T17:34:07.652Z,36.38
2018-09-11T17:36:36.807Z,36.49
2018-09-11T17:39:09.785Z,37.25
2018-09-11T17:41:39.455Z,37.34
2018-09-11T17:44:08.627Z,36.97
2018-09-11T17:46:37.966Z,37.49
2018-09-11T17:49:07.521Z,37.45
2018-09-11T17:51:36.697Z,37.94
2018-09-11T17:54:05.889Z,37.47
2018-09-11T17:56:35.010Z,37.73
2018-09-11T17:59:04.111Z,37.68
2018-09-11T18:01:33.303Z,38.51
2018-09-11T18:04:02.409Z,38.46
2018-09-11T18:06:31.597Z,38.52
2018-09-11T18:09:00.744Z,38.84
2018-09-11T18:11:29.904Z,38.71
2018-09-11T18:13:59.088Z,38.97
2018-09-11T18:16:28.246Z,39.06
2018-09-11T18:18:57.390Z,39.20
2018-09-11T18:21:26.680Z,39.58
2018-09-11T18:23:55.873Z,39.77
2018-09-11T18:26:25.010Z,40.37
2018-09-11T18:28:54.193Z,40.46
2018-09-11T18:31:23.330Z,40.02
2018-09-11T18:33:52.649Z,40.24
2018-09-11T18:36:21.888Z,40.61
2018-09-11T18:38:51.046Z,40.59
2018-09-11T18:41:20.208Z,41.21
2018-09-11T18:43:49.418Z,41.07
2018-09-11T18:46:18.568Z,41.39
2018-09-11T18:48:47.671Z,41.35
2018-09-11T18:51:16.921Z,41.33
2018-09-11T18:53:46.033Z,41.13
2018-09-11T18:56:15.242Z,41.67
2018-09-11T18:58:44.647Z,41.76
2018-09-11T19:01:13.825Z,41.50
2018-09-11T19:03:42.935Z,41.42
2018-09-11T19:06:12.043Z,41.42
2018-09-11T19:08:41.239Z,41.39
2018-09-11T19:11:10.476Z,41.07
2018-09-11T19:13:39.658Z,40.77
2018-09-11T19:16:09.019Z,40.70
2018-09-11T19:18:38.106Z,40.27
2018-09-11T19:21:07.229Z,40.49
2018-09-11T19:23:36.368Z,40.26
2018-09-11T19:26:05.546Z,40.02
2018-09-11T19:28:34.716Z,40.50
2018-09-11T19:31:03.907Z,40.66
2018-09-11T19:33:36.103Z,40.60
2018-09-11T19:36:05.350Z,40.27
2018-09-11T19:38:34.464Z,40.64
2018-09-11T19:41:03.620Z,40.83
2018-09-11T19:43:32.756Z,40.90
2018-09-11T19:46:01.896Z,41.36
2018-09-11T19:48:30.988Z,41.44
2018-09-11T19:51:00.161Z,41.48
2018-09-11T19:53:29.334Z,41.43
2018-09-11T19:55:58.470Z,41.73
2018-09-11T19:58:27.816Z,41.94
2018-09-11T20:00:56.962Z,42.09
2018-09-11T20:03:26.139Z,42.13
2018-09-11T20:05:55.306Z,42.66
2018-09-11T20:08:24.420Z,42.26
2018-09-11T20:10:53.600Z,42.16
2018-09-11T20:13:22.735Z,41.84
2018-09-11T20:15:52.098Z,41.94
2018-09-11T20:18:21.259Z,41.33
2018-09-11T20:20:50.445Z,41.35
2018-09-11T20:23:19.758Z,41.72
2018-09-11T20:25:48.930Z,41.40
2018-09-11T20:28:18.081Z,41.44
2018-09-11T20:30:47.361Z,41.57
2018-09-11T20:33:16.539Z,41.99
2018-09-11T20:35:45.712Z,41.85
2018-09-11T20:38:14.913Z,42.20
2018-09-11T20:40:44.064Z,42.12
2018-09-11T20:43:13.620Z,42.60
2018-09-11T20:45:42.825Z,42.42
2018-09-11T20:48:12.023Z,42.28
2018-09-11T20:50:41.172Z,42.05
2018-09-11T20:53:10.328Z,42.06
2018-09-11T20:55:39.500Z,42.24
2018-09-11T20:58:08.753Z,42.20
2018-09-11T21:00:37.938Z,42.06
2018-09-11T21:03:07.114Z,42.22
2018-09-11T21:05:36.325Z,41.93
2018-09-11T21:08:05.499Z,41.97
2018-09-11T21:10:34.628Z,42.38
2018-09-11T21:13:03.870Z,42.31
2018-09-11T21:15:33.019Z,42.25
2018-09-11T21:18:02.169Z,42.07
2018-09-11T21:20:31.386Z,42.07
2018-09-11T21:23:00.627Z,41.94
2018-09-11T21:25:29.902Z,42.01
2018-09-11T21:27:59.373Z,41.88
2018-09-11T21:30:28.705Z,42.27
2018-09-11T21:32:57.975Z,42.49
2018-09-11T21:35:27.237Z,42.21
2018-09-11T21:37:56.529Z,42.80
2018-09-11T21:40:25.789Z,43.20
2018-09-11T21:42:55.038Z,42.94
2018-09-11T21:45:24.342Z,43.28
2018-09-11T21:47:53.605Z,43.30
2018-09-11T21:50:22.898Z,43.03
2018-09-11T21:52:52.186Z,43.40
2018-09-11T21:55:21.436Z,43.68
2018-09-11T21:57:50.670Z,43.57
2018-09-11T22:00:19.978Z,43.81
2018-09-11T22:02:49.261Z,42.96
2018-09-11T22:05:18.503Z,43.25
2018-09-11T22:07:47.773Z,43.15
2018-09-11T22:10:17.078Z,42.72
2018-09-11T22:12:46.352Z,43.03
2018-09-11T22:15:15.672Z,42.92
2018-09-11T22:17:44.990Z,42.33
2018-09-11T22:20:14.229Z,42.58
2018-09-11T22:22:43.420Z,42.57
2018-09-11T22:25:12.664Z,42.72
2018-09-11T22:27:41.957Z,42.68
2018-09-11T22:30:11.200Z,42.72
2018-09-11T22:32:40.480Z,42.62
2018-09-11T22:35:09.787Z,42.95
2018-09-11T22:37:39.068Z,43.02
2018-09-11T22:40:09.103Z,42.72
2018-09-11T22:42:38.890Z,42.65
2018-09-11T22:45:08.219Z,42.88
2018-09-11T22:47:37.566Z,43.14
2018-09-11T22:50:06.918Z,43.70
2018-09-11T22:52:36.561Z,43.88
2018-09-11T22:55:05.929Z,43.99
2018-09-11T22:57:38.741Z,44.30
2018-09-11T23:00:08.600Z,44.72
2018-09-11T23:02:37.960Z,44.99
2018-09-11T23:05:07.533Z,45.25
2018-09-11T23:07:45.827Z,45.20
2018-09-11T23:10:15.549Z,45.33
2018-09-11T23:12:44.900Z,45.42
2018-09-11T23:15:14.294Z,45.50
2018-09-11T23:17:43.630Z,45.59
2018-09-11T23:20:13.381Z,45.85
2018-09-11T23:22:42.746Z,45.94
2018-09-11T23:25:12.089Z,45.50
2018-09-11T23:27:42.084Z,45.63
2018-09-11T23:30:11.733Z,45.57
2018-09-11T23:32:41.222Z,45.17
2018-09-11T23:35:10.570Z,45.07
2018-09-11T23:37:40.099Z,45.16
2018-09-11T23:40:09.810Z,44.50
2018-09-11T23:42:39.164Z,45.01
2018-09-11T23:45:08.458Z,44.46
2018-09-11T23:47:38.226Z,44.53
2018-09-11T23:50:08.685Z,44.65
2018-09-11T23:52:38.415Z,44.96
2018-09-11T23:55:07.755Z,44.46
2018-09-11T23:57:37.062Z,44.84
